Time,TemperatureF,DewpointF,PressureIn,WindDirection,WindDirectionDegrees,WindSpeedMPH,WindSpeedGustMPH,Humidity,HourlyPrecipIn,Conditions,Clouds,dailyrainin,SoftwareType,DateUTC
2013-07-16 00:02:00,69.3,47.6,28.81,West,270,3.5,3.5,46,0.00,CLR,OVC,0.00,WeatherDisplay:10.37,2013-07-16 07:02:00,
2013-07-16 00:07:00,69.1,47.4,28.81,WNW,292,3.6,3.6,46,0.00,CLR,OVC,0.00,WeatherDisplay:10.37,2013-07-16 07:07:00,
2013-07-16 00:12:00,69.1,47.4,28.81,West,270,4.6,4.6,46,0.00,CLR,OVC,0.00,WeatherDisplay:10.37,2013-07-16 07:12:00,
2013-07-16 00:17:00,69.1,47.4,28.81,West,270,2.3,2.3,46,0.00,CLR,OVC,0.00,WeatherDisplay:10.37,2013-07-16 07:17:00,
2013-07-16 00:22:00,68.4,46.2,28.82,ENE,68,2.3,2.3,45,0.00,CLR,OVC,0.00,WeatherDisplay:10.37,2013-07-16 07:22:00,
2013-07-16 00:27:00,67.6,46.1,28.82,West,270,2.3,2.3,46,0.00,CLR,OVC,0.00,WeatherDisplay:10.37,2013-07-16 07:27:00,
2013-07-16 00:32:00,67.1,45.6,28.82,WSW,248,1.2,0.0,46,0.00,CLR,OVC,0.00,WeatherDisplay:10.37,2013-07-16 07:32:00,
2013-07-16 00:37:00,66.6,46.3,28.82,West,270,3.5,3.5,48,0.00,CLR,OVC,0.00,WeatherDisplay:10.37,2013-07-16 07:37:00,
2013-07-16 00:42:00,66.2,45.9,28.82,NW,315,2.3,2.3,48,0.00,CLR,OVC,0.00,WeatherDisplay:10.37,2013-07-16 07:42:00,
2013-07-16 00:47:00,66.2,45.9,28.82,WNW,292,1.2,1.2,48,0.00,CLR,OVC,0.00,WeatherDisplay:10.37,2013-07-16 07:47:00,
2013-07-16 00:52:00,65.8,45.6,28.82,WNW,292,2.3,2.3,48,0.00,CLR,OVC,0.00,WeatherDisplay:10.37,2013-07-16 07:52:00,
2013-07-16 00:57:00,65.7,45.4,28.82,NNW,338,0.2,0.2,48,0.00,CLR,OVC,0.00,WeatherDisplay:10.37,2013-07-16 07:57:00,
2013-07-16 01:02:00,65.8,46.1,28.82,NW,315,1.2,1.2,49,0.00,CLR,OVC,0.00,WeatherDisplay:10.37,2013-07-16 08:02:00,
2013-07-16 01:07:00,66.2,47.0,28.82,West,270,2.3,2.3,50,0.00,CLR,OVC,0.00,WeatherDisplay:10.37,2013-07-16 08:07:00,
2013-07-16 01:12:00,66.4,47.2,28.82,WNW,292,2.3,2.3,50,0.00,CLR,OVC,0.00,WeatherDisplay:10.37,2013-07-16 08:12:00,
2013-07-16 01:17:00,67.1,47.8,28.82,NNE,22,1.2,1.2,50,0.00,CLR,OVC,0.00,WeatherDisplay:10.37,2013-07-16 08:17:00,
2013-07-16 01:22:00,67.5,47.6,28.82,West,270,2.3,2.3,49,0.00,CLR,OVC,0.00,WeatherDisplay:10.37,2013-07-16 08:22:00,
2013-07-16 01:27:00,67.6,47.8,28.82,WNW,292,2.3,2.3,49,0.00,CLR,OVC,0.00,WeatherDisplay:10.37,2013-07-16 08:27:00,
2013-07-16 01:32:00,67.6,47.2,28.82,SSW,202,1.2,1.2,48,0.00,CLR,OVC,0.00,WeatherDisplay:10.37,2013-07-16 08:32:00,
2013-07-16 01:37:00,67.8,47.4,28.82,SE,135,1.2,1.2,48,0.00,CLR,OVC,0.00,WeatherDisplay:10.37,2013-07-16 08:37:00,
2013-07-16 01:42:00,68.0,47.6,28.82,WNW,292,1.2,0.0,48,0.00,CLR,OVC,0.00,WeatherDisplay:10.37,2013-07-16 08:42:00,
2013-07-16 01:47:00,68.0,47.0,28.82,SSW,202,1.2,1.2,47,0.00,CLR,OVC,0.00,WeatherDisplay:10.37,2013-07-16 08:47:00,
2013-07-16 01:52:00,68.0,47.0,28.82,SSW,202,0.5,0.5,47,0.00,CLR,OVC,0.00,WeatherDisplay:10.37,2013-07-16 08:52:00,
2013-07-16 01:57:00,67.3,46.4,28.82,SSW,202,0.0,0.0,47,0.00,CLR,OVC,0.00,WeatherDisplay:10.37,2013-07-16 08:57:00,
2013-07-16 02:02:00,66.7,46.4,28.82,SSW,202,1.2,0.0,48,0.00,CLR,OVC,0.00,WeatherDisplay:10.37,2013-07-16 09:02:00,
2013-07-16 02:07:00,66.6,46.3,28.82,NNE,22,1.2,0.0,48,0.00,CLR,OVC,0.00,WeatherDisplay:10.37,2013-07-16 09:07:00,
2013-07-16 02:12:00,66.6,46.3,28.81,WSW,248,1.4,1.4,48,0.00,CLR,OVC,0.00,WeatherDisplay:10.37,2013-07-16 09:12:00,
2013-07-16 02:17:00,66.6,46.8,28.81,WSW,248,2.4,2.4,49,0.00,CLR,OVC,0.00,WeatherDisplay:10.37,2013-07-16 09:17:00,
2013-07-16 02:22:00,67.3,46.9,28.81,WSW,248,1.2,1.2,48,0.00,CLR,OVC,0.00,WeatherDisplay:10.37,2013-07-16 09:22:00,
2013-07-16 02:27:00,67.6,46.7,28.81,WSW,248,2.3,2.3,47,0.00,CLR,OVC,0.00,WeatherDisplay:10.37,2013-07-16 09:27:00,
2013-07-16 02:32:00,68.2,47.2,28.81,WNW,292,2.3,2.3,47,0.00,CLR,OVC,0.00,WeatherDisplay:10.37,2013-07-16 09:32:00,
2013-07-16 02:37:00,68.7,47.1,28.81,WSW,248,3.5,3.5,46,0.00,CLR,OVC,0.00,WeatherDisplay:10.37,2013-07-16 09:37:00,
2013-07-16 02:42:00,68.7,47.7,28.80,West,270,3.5,3.5,47,0.00,CLR,OVC,0.00,WeatherDisplay:10.37,2013-07-16 09:42:00,
2013-07-16 02:47:00,68.9,47.8,28.80,ESE,112,2.3,2.3,47,0.00,CLR,OVC,0.00,WeatherDisplay:10.37,2013-07-16 09:47:00,
2013-07-16 02:52:00,69.1,47.4,28.80,SSW,202,4.6,4.6,46,0.00,CLR,OVC,0.00,WeatherDisplay:10.37,2013-07-16 09:52:00,
2013-07-16 02:57:00,69.3,47.6,28.80,WSW,248,3.3,3.3,46,0.00,CLR,OVC,0.00,WeatherDisplay:10.37,2013-07-16 09:57:00,
2013-07-16 03:02:00,69.3,47.6,28.80,WNW,292,3.5,3.5,46,0.00,CLR,OVC,0.00,WeatherDisplay:10.37,2013-07-16 10:02:00,
2013-07-16 03:07:00,69.3,48.2,28.80,West,270,4.0,4.0,47,0.00,CLR,OVC,0.00,WeatherDisplay:10.37,2013-07-16 10:07:00,
2013-07-16 03:12:00,69.1,47.4,28.80,SSW,202,2.4,2.4,46,0.00,CLR,OVC,0.00,WeatherDisplay:10.37,2013-07-16 10:12:00,
2013-07-16 03:17:00,69.1,47.4,28.80,SW,225,2.3,2.3,46,0.00,CLR,OVC,0.00,WeatherDisplay:10.37,2013-07-16 10:17:00,
2013-07-16 03:22:00,69.1,47.4,28.80,East,90,1.8,1.8,46,0.00,CLR,OVC,0.00,WeatherDisplay:10.37,2013-07-16 10:22:00,
2013-07-16 03:27:00,69.1,46.8,28.80,SW,225,2.3,2.3,45,0.00,CLR,OVC,0.00,WeatherDisplay:10.37,2013-07-16 10:27:00,
2013-07-16 03:32:00,68.7,47.1,28.80,WSW,248,1.2,1.2,46,0.00,CLR,OVC,0.00,WeatherDisplay:10.37,2013-07-16 10:32:00,
2013-07-16 03:37:00,68.4,46.2,28.80,ESE,112,2.3,2.3,45,0.00,CLR,OVC,0.00,WeatherDisplay:10.37,2013-07-16 10:37:00,
2013-07-16 03:42:00,67.8,45.7,28.79,SSW,202,1.2,1.2,45,0.00,CLR,OVC,0.00,WeatherDisplay:10.37,2013-07-16 10:42:00,
2013-07-16 03:47:00,67.8,45.7,28.79,North,0,1.2,1.2,45,0.00,CLR,OVC,0.00,WeatherDisplay:10.37,2013-07-16 10:47:00,
2013-07-16 03:52:00,68.0,45.9,28.79,WSW,248,2.3,2.3,45,0.00,CLR,OVC,0.00,WeatherDisplay:10.37,2013-07-16 10:52:00,
2013-07-16 03:58:00,68.5,45.8,28.79,South,180,2.3,2.3,44,0.00,CLR,OVC,0.00,WeatherDisplay:10.37,2013-07-16 10:58:00,
2013-07-16 04:03:00,68.5,45.8,28.79,WSW,248,1.2,1.2,44,0.00,CLR,OVC,0.00,WeatherDisplay:10.37,2013-07-16 11:03:00,
2013-07-16 04:08:00,68.4,45.6,28.79,WNW,292,2.3,2.3,44,0.00,CLR,OVC,0.00,WeatherDisplay:10.37,2013-07-16 11:08:00,
2013-07-16 04:13:00,67.8,45.1,28.79,WNW,292,0.0,0.0,44,0.00,CLR,OVC,0.00,WeatherDisplay:10.37,2013-07-16 11:13:00,
2013-07-16 04:18:00,66.9,44.9,28.79,WNW,292,0.0,0.0,45,0.00,CLR,OVC,0.00,WeatherDisplay:10.37,2013-07-16 11:18:00,
2013-07-16 04:23:00,66.4,45.0,28.80,WNW,292,0.0,0.0,46,0.00,CLR,OVC,0.00,WeatherDisplay:10.37,2013-07-16 11:23:00,
2013-07-16 04:28:00,66.0,44.6,28.80,WNW,292,0.0,0.0,46,0.00,CLR,OVC,0.00,WeatherDisplay:10.37,2013-07-16 11:28:00,
2013-07-16 04:33:00,65.8,45.0,28.79,WNW,292,0.0,0.0,47,0.00,CLR,OVC,0.00,WeatherDisplay:10.37,2013-07-16 11:33:00,
2013-07-16 04:38:00,65.8,44.5,28.80,WNW,292,0.0,0.0,46,0.00,CLR,OVC,0.00,WeatherDisplay:10.37,2013-07-16 11:38:00,
2013-07-16 04:43:00,65.8,44.5,28.79,SSE,158,0.0,0.0,46,0.00,CLR,OVC,0.00,WeatherDisplay:10.37,2013-07-16 11:43:00,
2013-07-16 04:48:00,65.7,44.3,28.79,ENE,68,1.2,1.2,46,0.00,CLR,OVC,0.00,WeatherDisplay:10.37,2013-07-16 11:48:00,
2013-07-16 04:53:00,65.7,44.9,28.79,NNW,338,1.2,1.2,47,0.00,CLR,OVC,0.00,WeatherDisplay:10.37,2013-07-16 11:53:00,
2013-07-16 04:58:00,65.8,43.9,28.79,NNE,22,1.2,0.0,45,0.00,CLR,OVC,0.00,WeatherDisplay:10.37,2013-07-16 11:58:00,
2013-07-16 05:03:00,66.2,43.6,28.79,NNE,22,1.2,1.2,44,0.00,CLR,OVC,0.00,WeatherDisplay:10.37,2013-07-16 12:03:00,
2013-07-16 05:08:00,66.6,44.0,28.79,NNE,22,0.5,0.5,44,0.00,CLR,OVC,0.00,WeatherDisplay:10.37,2013-07-16 12:08:00,
2013-07-16 05:13:00,66.6,44.0,28.79,NNE,22,0.0,0.0,44,0.00,CLR,OVC,0.00,WeatherDisplay:10.37,2013-07-16 12:13:00,
2013-07-16 05:18:00,66.0,43.5,28.79,NNE,22,1.2,0.0,44,0.00,CLR,OVC,0.00,WeatherDisplay:10.37,2013-07-16 12:18:00,
2013-07-16 05:23:00,65.8,43.3,28.79,NNE,22,1.2,1.2,44,0.00,CLR,OVC,0.00,WeatherDisplay:10.37,2013-07-16 12:23:00,
2013-07-16 05:28:00,65.8,42.7,28.79,NNE,22,0.0,0.0,43,0.00,CLR,OVC,0.00,WeatherDisplay:10.37,2013-07-16 12:28:00,
2013-07-16 05:33:00,66.0,42.9,28.79,ENE,68,0.0,0.0,43,0.00,CLR,OVC,0.00,WeatherDisplay:10.37,2013-07-16 12:33:00,
2013-07-16 05:38:00,65.8,42.7,28.79,ENE,68,0.5,0.5,43,0.00,CLR,OVC,0.00,WeatherDisplay:10.37,2013-07-16 12:38:00,
2013-07-16 05:43:00,65.7,42.5,28.79,ENE,68,0.0,0.0,43,0.00,CLR,OVC,0.00,WeatherDisplay:10.37,2013-07-16 12:43:00,
2013-07-16 05:48:00,65.3,42.8,28.79,ENE,68,1.2,0.0,44,0.00,CLR,OVC,0.00,WeatherDisplay:10.37,2013-07-16 12:48:00,
2013-07-16 05:53:00,65.1,42.7,28.79,North,0,1.2,1.2,44,0.00,CLR,OVC,0.00,WeatherDisplay:10.37,2013-07-16 12:53:00,
2013-07-16 05:58:00,64.9,41.9,28.79,NW,315,1.2,1.2,43,0.00,CLR,OVC,0.00,WeatherDisplay:10.37,2013-07-16 12:58:00,
2013-07-16 06:03:00,65.1,41.4,28.79,NE,45,0.5,0.5,42,0.00,CLR,OVC,0.00,WeatherDisplay:10.37,2013-07-16 13:03:00,
2013-07-16 06:08:00,65.8,41.5,28.79,NE,45,2.3,2.3,41,0.00,CLR,OVC,0.00,WeatherDisplay:10.37,2013-07-16 13:08:00,
2013-07-16 06:13:00,66.6,41.5,28.79,NE,45,1.4,1.4,40,0.00,CLR,OVC,0.00,WeatherDisplay:10.37,2013-07-16 13:13:00,
2013-07-16 06:18:00,67.3,41.5,28.79,NE,45,2.3,2.3,39,0.00,CLR,OVC,0.00,WeatherDisplay:10.37,2013-07-16 13:18:00,
2013-07-16 06:23:00,68.0,42.1,28.79,NE,45,0.0,0.0,39,0.00,CLR,OVC,0.00,WeatherDisplay:10.37,2013-07-16 13:23:00,
2013-07-16 06:28:00,68.5,42.6,28.79,NE,45,0.0,0.0,39,0.00,CLR,OVC,0.00,WeatherDisplay:10.37,2013-07-16 13:28:00,
2013-07-16 06:33:00,68.7,42.1,28.79,North,0,1.2,0.0,38,0.00,CLR,OVC,0.00,WeatherDisplay:10.37,2013-07-16 13:33:00,
2013-07-16 06:38:00,69.3,41.9,28.79,North,0,1.2,1.2,37,0.00,CLR,OVC,0.00,WeatherDisplay:10.37,2013-07-16 13:38:00,
2013-07-16 06:43:00,69.8,42.3,28.78,North,0,1.2,1.2,37,0.00,CLR,OVC,0.00,WeatherDisplay:10.37,2013-07-16 13:43:00,
2013-07-16 06:48:00,70.5,41.5,28.79,NE,45,1.2,0.0,35,0.00,CLR,OVC,0.00,WeatherDisplay:10.37,2013-07-16 13:48:00,
2013-07-16 06:53:00,70.9,43.3,28.78,NE,45,0.0,0.0,37,0.00,CLR,OVC,0.00,WeatherDisplay:10.37,2013-07-16 13:53:00,
2013-07-16 06:58:00,70.7,43.1,28.78,NE,45,0.2,0.2,37,0.00,CLR,OVC,0.00,WeatherDisplay:10.37,2013-07-16 13:58:00,
2013-07-16 07:03:00,70.3,42.8,28.78,NE,45,0.0,0.0,37,0.00,CLR,OVC,0.00,WeatherDisplay:10.37,2013-07-16 14:03:00,
2013-07-16 07:08:00,70.2,42.7,28.78,NE,45,0.0,0.0,37,0.00,CLR,OVC,0.00,WeatherDisplay:10.37,2013-07-16 14:08:00,
2013-07-16 07:13:00,69.8,43.0,28.78,NE,45,0.0,0.0,38,0.00,CLR,OVC,0.00,WeatherDisplay:10.37,2013-07-16 14:13:00,
2013-07-16 07:18:00,69.4,43.4,28.79,SW,225,0.0,0.0,39,0.00,CLR,OVC,0.00,WeatherDisplay:10.37,2013-07-16 14:18:00,
2013-07-16 07:23:00,68.9,43.6,28.79,ESE,112,0.0,0.0,40,0.00,CLR,OVC,0.00,WeatherDisplay:10.37,2013-07-16 14:23:00,
2013-07-16 07:28:00,69.1,44.4,28.79,ENE,68,2.3,2.3,41,0.00,CLR,OVC,0.00,WeatherDisplay:10.37,2013-07-16 14:28:00,
2013-07-16 07:33:00,70.0,43.2,28.79,ENE,68,2.2,2.2,38,0.00,CLR,OVC,0.00,WeatherDisplay:10.37,2013-07-16 14:33:00,
2013-07-16 07:38:00,71.1,44.8,28.79,ENE,68,1.2,1.2,39,0.00,CLR,OVC,0.00,WeatherDisplay:10.37,2013-07-16 14:38:00,
2013-07-16 07:43:00,71.4,46.5,28.79,ENE,68,0.0,0.0,41,0.00,CLR,OVC,0.00,WeatherDisplay:10.37,2013-07-16 14:43:00,
2013-07-16 07:48:00,71.4,46.5,28.79,ENE,68,0.0,0.0,41,0.00,CLR,OVC,0.00,WeatherDisplay:10.37,2013-07-16 14:48:00,
2013-07-16 07:53:00,71.2,47.6,28.80,ENE,68,0.0,0.0,43,0.00,CLR,OVC,0.00,WeatherDisplay:10.37,2013-07-16 14:53:00,
2013-07-16 07:58:00,71.2,49.4,28.80,East,90,0.0,0.0,46,0.00,CLR,OVC,0.00,WeatherDisplay:10.37,2013-07-16 14:58:00,
2013-07-16 08:03:00,72.9,52.0,28.80,SSE,158,0.0,0.0,48,0.00,CLR,OVC,0.00,WeatherDisplay:10.37,2013-07-16 15:03:00,
2013-07-16 08:08:00,75.9,54.2,28.80,SE,135,0.7,0.7,47,0.00,CLR,OVC,0.00,WeatherDisplay:10.37,2013-07-16 15:08:00,
2013-07-16 08:13:00,79.2,56.6,28.81,SSW,202,0.5,0.5,46,0.00,CLR,OVC,0.00,WeatherDisplay:10.37,2013-07-16 15:13:00,
2013-07-16 08:18:00,82.2,57.5,28.81,SE,135,1.2,1.2,43,0.00,CLR,OVC,0.00,WeatherDisplay:10.37,2013-07-16 15:18:00,
2013-07-16 08:24:00,83.8,57.6,28.81,SE,135,1.2,1.2,41,0.00,CLR,OVC,0.00,WeatherDisplay:10.37,2013-07-16 15:24:00,
2013-07-16 08:29:00,84.4,57.4,28.81,SW,225,1.2,1.2,40,0.00,CLR,OVC,0.00,WeatherDisplay:10.37,2013-07-16 15:29:00,
2013-07-16 08:34:00,84.7,57.7,28.82,West,270,2.3,2.3,40,0.00,CLR,OVC,0.00,WeatherDisplay:10.37,2013-07-16 15:34:00,
2013-07-16 08:39:00,84.7,57.0,28.82,SSW,202,1.2,1.2,39,0.00,CLR,OVC,0.00,WeatherDisplay:10.37,2013-07-16 15:39:00,
2013-07-16 08:44:00,84.6,57.6,28.83,SSE,158,2.3,2.3,40,0.00,CLR,OVC,0.00,WeatherDisplay:10.37,2013-07-16 15:44:00,
2013-07-16 08:49:00,83.3,55.8,28.83,SW,225,2.3,2.3,39,0.00,CLR,OVC,0.00,WeatherDisplay:10.37,2013-07-16 15:49:00,
2013-07-16 08:54:00,82.2,55.5,28.83,West,270,2.3,2.3,40,0.00,CLR,OVC,0.00,WeatherDisplay:10.37,2013-07-16 15:54:00,
2013-07-16 08:59:00,81.7,55.0,28.83,WNW,292,2.3,2.3,40,0.00,CLR,OVC,0.00,WeatherDisplay:10.37,2013-07-16 15:59:00,
2013-07-16 09:04:00,80.8,54.9,28.84,West,270,3.1,3.1,41,0.00,CLR,OVC,0.00,WeatherDisplay:10.37,2013-07-16 16:04:00,
2013-07-16 09:09:00,81.0,55.7,28.84,West,270,2.3,2.3,42,0.00,CLR,OVC,0.00,WeatherDisplay:10.37,2013-07-16 16:09:00,
2013-07-16 09:14:00,81.0,55.7,28.84,West,270,1.6,1.6,42,0.00,CLR,OVC,0.00,WeatherDisplay:10.37,2013-07-16 16:14:00,
2013-07-16 09:19:00,81.9,56.5,28.83,WNW,292,1.2,1.2,42,0.00,CLR,OVC,0.00,WeatherDisplay:10.37,2013-07-16 16:19:00,
2013-07-16 09:24:00,82.6,56.5,28.82,West,270,1.2,1.2,41,0.00,CLR,OVC,0.00,WeatherDisplay:10.37,2013-07-16 16:24:00,
2013-07-16 09:29:00,83.7,57.5,28.81,West,270,2.3,0.0,41,0.00,CLR,OVC,0.00,WeatherDisplay:10.37,2013-07-16 16:29:00,
2013-07-16 09:34:00,84.2,49.4,28.80,ESE,112,5.8,5.8,30,0.00,CLR,OVC,0.00,WeatherDisplay:10.37,2013-07-16 16:34:00,
2013-07-16 09:39:00,84.9,49.1,28.80,SE,135,6.9,6.9,29,0.00,CLR,OVC,0.00,WeatherDisplay:10.37,2013-07-16 16:39:00,
2013-07-16 09:44:00,84.0,46.4,28.81,ENE,68,9.2,9.2,27,0.00,CLR,OVC,0.00,WeatherDisplay:10.37,2013-07-16 16:44:00,
2013-07-16 09:49:00,82.4,47.8,28.81,SSE,158,2.3,5.4,30,0.00,CLR,OVC,0.00,WeatherDisplay:10.37,2013-07-16 16:49:00,
2013-07-16 09:54:00,80.6,53.4,28.82,WSW,248,3.5,3.5,39,0.00,CLR,OVC,0.00,WeatherDisplay:10.37,2013-07-16 16:54:00,
2013-07-16 09:59:00,80.1,53.6,28.82,West,270,2.4,2.4,40,0.00,CLR,OVC,0.00,WeatherDisplay:10.37,2013-07-16 16:59:00,
2013-07-16 10:04:00,79.5,53.8,28.82,NW,315,1.2,1.2,41,0.00,CLR,OVC,0.00,WeatherDisplay:10.37,2013-07-16 17:04:00,
2013-07-16 10:09:00,79.5,53.8,28.82,WNW,292,1.2,1.2,41,0.00,CLR,OVC,0.00,WeatherDisplay:10.37,2013-07-16 17:09:00,
2013-07-16 10:14:00,80.2,54.4,28.82,WNW,292,0.5,0.5,41,0.00,CLR,OVC,0.00,WeatherDisplay:10.37,2013-07-16 17:14:00,
2013-07-16 10:19:00,80.6,55.4,28.81,East,90,2.6,2.6,42,0.00,CLR,OVC,0.00,WeatherDisplay:10.37,2013-07-16 17:19:00,
2013-07-16 10:24:00,82.0,51.7,28.81,ESE,112,4.6,4.6,35,0.00,CLR,OVC,0.00,WeatherDisplay:10.37,2013-07-16 17:24:00,
2013-07-16 10:29:00,81.7,50.6,28.81,ESE,112,5.4,5.4,34,0.00,CLR,OVC,0.00,WeatherDisplay:10.37,2013-07-16 17:29:00,
2013-07-16 10:34:00,81.0,50.7,28.81,ESE,112,4.6,4.6,35,0.00,CLR,OVC,0.00,WeatherDisplay:10.37,2013-07-16 17:34:00,
2013-07-16 10:39:00,81.0,55.0,28.82,WSW,248,3.3,3.3,41,0.00,CLR,OVC,0.00,WeatherDisplay:10.37,2013-07-16 17:39:00,
2013-07-16 10:44:00,78.6,54.2,28.82,SW,225,4.6,4.6,43,0.00,CLR,OVC,0.00,WeatherDisplay:10.37,2013-07-16 17:44:00,
2013-07-16 10:49:00,77.0,54.0,28.82,West,270,2.3,2.3,45,0.00,CLR,OVC,0.00,WeatherDisplay:10.37,2013-07-16 17:49:00,
2013-07-16 10:54:00,76.3,55.1,28.81,WNW,292,2.4,2.4,48,0.00,CLR,OVC,0.00,WeatherDisplay:10.37,2013-07-16 17:54:00,
2013-07-16 10:59:00,76.1,55.0,28.82,WNW,292,2.3,2.3,48,0.00,CLR,OVC,0.00,WeatherDisplay:10.37,2013-07-16 17:59:00,
2013-07-16 11:04:00,76.1,56.1,28.81,WNW,292,3.5,3.5,50,0.00,CLR,OVC,0.00,WeatherDisplay:10.37,2013-07-16 18:04:00,
2013-07-16 11:09:00,75.9,55.9,28.81,WNW,292,2.3,2.3,50,0.00,CLR,OVC,0.00,WeatherDisplay:10.37,2013-07-16 18:09:00,
2013-07-16 11:14:00,75.9,57.0,28.81,West,270,2.3,2.3,52,0.00,CLR,OVC,0.00,WeatherDisplay:10.37,2013-07-16 18:14:00,
2013-07-16 11:19:00,76.5,56.4,28.81,WSW,248,2.3,2.4,50,0.00,CLR,OVC,0.00,WeatherDisplay:10.37,2013-07-16 18:19:00,
2013-07-16 11:24:00,77.4,56.7,28.82,NNW,338,1.2,1.2,49,0.00,CLR,OVC,0.00,WeatherDisplay:10.37,2013-07-16 18:24:00,
2013-07-16 11:29:00,78.6,57.9,28.82,SW,225,2.6,2.6,49,0.00,CLR,OVC,0.00,WeatherDisplay:10.37,2013-07-16 18:29:00,
2013-07-16 11:34:00,80.4,58.3,28.82,NW,315,3.3,3.3,47,0.00,CLR,OVC,0.00,WeatherDisplay:10.37,2013-07-16 18:34:00,
2013-07-16 11:39:00,80.6,56.7,28.82,WNW,292,2.3,2.3,44,0.00,CLR,OVC,0.00,WeatherDisplay:10.37,2013-07-16 18:39:00,
2013-07-16 11:44:00,80.4,57.7,28.82,NW,315,2.3,2.3,46,0.00,CLR,OVC,0.00,WeatherDisplay:10.37,2013-07-16 18:44:00,
2013-07-16 11:49:00,81.3,57.9,28.82,NW,315,2.3,2.3,45,0.00,CLR,OVC,0.00,WeatherDisplay:10.37,2013-07-16 18:49:00,
2013-07-16 11:54:00,81.7,57.6,28.81,West,270,2.3,2.3,44,0.00,CLR,OVC,0.00,WeatherDisplay:10.37,2013-07-16 18:54:00,
2013-07-16 11:59:00,82.4,58.3,28.81,West,270,2.3,2.3,44,0.00,CLR,OVC,0.00,WeatherDisplay:10.37,2013-07-16 18:59:00,
2013-07-16 12:04:00,83.3,58.5,28.81,West,270,3.8,3.8,43,0.00,CLR,OVC,0.00,WeatherDisplay:10.37,2013-07-16 19:04:00,
2013-07-16 12:09:00,84.2,58.6,28.81,NNW,338,2.3,2.3,42,0.00,CLR,OVC,0.00,WeatherDisplay:10.37,2013-07-16 19:09:00,
2013-07-16 12:14:00,85.3,58.2,28.80,WSW,248,3.5,3.5,40,0.00,CLR,OVC,0.00,WeatherDisplay:10.37,2013-07-16 19:14:00,
2013-07-16 12:19:00,84.9,57.2,28.81,WNW,292,3.5,3.5,39,0.00,CLR,OVC,0.00,WeatherDisplay:10.37,2013-07-16 19:19:00,
2013-07-16 12:24:00,84.2,57.3,28.81,West,270,2.3,2.3,40,0.00,CLR,OVC,0.00,WeatherDisplay:10.37,2013-07-16 19:24:00,
2013-07-16 12:29:00,84.2,57.3,28.81,SW,225,2.6,2.6,40,0.00,CLR,OVC,0.00,WeatherDisplay:10.37,2013-07-16 19:29:00,
2013-07-16 12:34:00,84.2,57.3,28.81,WSW,248,2.3,2.3,40,0.00,CLR,OVC,0.00,WeatherDisplay:10.37,2013-07-16 19:34:00,
2013-07-16 12:39:00,84.4,57.4,28.81,West,270,2.3,2.4,40,0.00,CLR,OVC,0.00,WeatherDisplay:10.37,2013-07-16 19:39:00,
2013-07-16 12:45:00,84.6,57.6,28.81,NW,315,1.2,1.2,40,0.00,CLR,OVC,0.00,WeatherDisplay:10.37,2013-07-16 19:45:00,
2013-07-16 12:50:00,84.0,57.1,28.81,West,270,3.5,3.5,40,0.00,CLR,OVC,0.00,WeatherDisplay:10.37,2013-07-16 19:50:00,
2013-07-16 12:55:00,82.9,56.8,28.80,WNW,292,1.2,1.2,41,0.00,CLR,OVC,0.00,WeatherDisplay:10.37,2013-07-16 19:55:00,
2013-07-16 13:00:00,82.0,57.3,28.80,NW,315,1.2,1.2,43,0.00,CLR,OVC,0.00,WeatherDisplay:10.37,2013-07-16 20:00:00,
2013-07-16 13:05:00,81.7,58.3,28.80,West,270,0.0,0.0,45,0.00,CLR,OVC,0.00,WeatherDisplay:10.37,2013-07-16 20:05:00,
2013-07-16 13:10:00,81.1,57.2,28.80,NW,315,1.2,1.2,44,0.00,CLR,OVC,0.00,WeatherDisplay:10.37,2013-07-16 20:10:00,
2013-07-16 13:15:00,80.8,57.5,28.80,WNW,292,1.2,1.2,45,0.00,CLR,OVC,0.00,WeatherDisplay:10.37,2013-07-16 20:15:00,
2013-07-16 13:20:00,80.2,57.6,28.80,NW,315,1.2,1.2,46,0.00,CLR,OVC,0.00,WeatherDisplay:10.37,2013-07-16 20:20:00,
2013-07-16 13:25:00,80.1,58.0,28.80,WNW,292,1.2,1.2,47,0.00,CLR,OVC,0.00,WeatherDisplay:10.37,2013-07-16 20:25:00,
2013-07-16 13:30:00,79.7,58.3,28.79,NW,315,1.2,0.0,48,0.00,CLR,OVC,0.00,WeatherDisplay:10.37,2013-07-16 20:30:00,
2013-07-16 13:35:00,79.3,58.5,28.80,West,270,0.0,0.0,49,0.00,CLR,OVC,0.00,WeatherDisplay:10.37,2013-07-16 20:35:00,
2013-07-16 13:40:00,79.5,58.7,28.81,West,270,2.3,2.3,49,0.00,CLR,OVC,0.00,WeatherDisplay:10.37,2013-07-16 20:40:00,
2013-07-16 13:45:00,79.5,58.7,28.81,NNW,338,0.0,0.0,49,0.00,CLR,OVC,0.00,WeatherDisplay:10.37,2013-07-16 20:45:00,
2013-07-16 13:50:00,79.2,57.8,28.81,WNW,292,1.2,1.2,48,0.00,CLR,OVC,0.00,WeatherDisplay:10.37,2013-07-16 20:50:00,
2013-07-16 13:55:00,78.8,58.0,28.81,South,180,0.2,0.2,49,0.00,CLR,OVC,0.00,WeatherDisplay:10.37,2013-07-16 20:55:00,
2013-07-16 14:00:00,79.0,57.6,28.81,West,270,1.2,1.2,48,0.00,CLR,OVC,0.00,WeatherDisplay:10.37,2013-07-16 21:00:00,
2013-07-16 14:05:00,79.2,57.8,28.81,ESE,112,2.3,2.3,48,0.00,CLR,OVC,0.00,WeatherDisplay:10.37,2013-07-16 21:05:00,
2013-07-16 14:10:00,79.2,57.8,28.81,North,0,1.2,1.2,48,0.00,CLR,OVC,0.00,WeatherDisplay:10.37,2013-07-16 21:10:00,
2013-07-16 14:15:00,79.3,56.8,28.81,SW,225,2.3,2.3,46,0.00,CLR,OVC,0.00,WeatherDisplay:10.37,2013-07-16 21:15:00,
2013-07-16 14:20:00,80.1,56.8,28.81,SW,225,2.3,2.3,45,0.00,CLR,OVC,0.00,WeatherDisplay:10.37,2013-07-16 21:20:00,
2013-07-16 14:25:00,81.0,57.0,28.80,West,270,2.3,2.3,44,0.00,CLR,OVC,0.00,WeatherDisplay:10.37,2013-07-16 21:25:00,
2013-07-16 14:30:00,81.5,57.5,28.80,SW,225,2.3,2.3,44,0.00,CLR,OVC,0.00,WeatherDisplay:10.37,2013-07-16 21:30:00,
2013-07-16 14:35:00,82.0,58.0,28.79,West,270,2.3,2.3,44,0.00,CLR,OVC,0.00,WeatherDisplay:10.37,2013-07-16 21:35:00,
2013-07-16 14:40:00,83.1,58.3,28.79,NW,315,2.6,2.6,43,0.00,CLR,OVC,0.00,WeatherDisplay:10.37,2013-07-16 21:40:00,
2013-07-16 14:45:00,84.6,58.9,28.79,North,0,2.3,2.3,42,0.00,CLR,OVC,0.00,WeatherDisplay:10.37,2013-07-16 21:45:00,
2013-07-16 14:50:00,86.7,60.9,28.79,SE,135,2.3,2.3,42,0.00,CLR,OVC,0.00,WeatherDisplay:10.37,2013-07-16 21:50:00,
2013-07-16 14:55:00,87.4,59.4,28.79,WSW,248,2.3,2.3,39,0.00,CLR,OVC,0.00,WeatherDisplay:10.37,2013-07-16 21:55:00,
2013-07-16 15:00:00,88.0,59.9,28.78,SSE,158,2.3,2.3,39,0.00,CLR,OVC,0.00,WeatherDisplay:10.37,2013-07-16 22:00:00,
2013-07-16 15:05:00,89.4,60.5,28.78,SE,135,2.3,2.3,38,0.00,CLR,OVC,0.00,WeatherDisplay:10.37,2013-07-16 22:05:00,
2013-07-16 15:10:00,90.7,60.1,28.79,WSW,248,1.2,1.2,36,0.00,CLR,OVC,0.00,WeatherDisplay:10.37,2013-07-16 22:10:00,
2013-07-16 15:15:00,91.9,62.7,28.79,South,180,2.3,2.3,38,0.00,CLR,OVC,0.00,WeatherDisplay:10.37,2013-07-16 22:15:00,
2013-07-16 15:20:00,91.8,62.5,28.79,SSW,202,2.3,2.3,38,0.00,CLR,OVC,0.00,WeatherDisplay:10.37,2013-07-16 22:20:00,
2013-07-16 15:25:00,91.8,62.5,28.79,SW,225,2.3,2.3,38,0.00,CLR,OVC,0.00,WeatherDisplay:10.37,2013-07-16 22:25:00,
2013-07-16 15:30:00,91.0,60.4,28.79,South,180,3.5,3.5,36,0.00,CLR,OVC,0.00,WeatherDisplay:10.37,2013-07-16 22:30:00,
2013-07-16 15:35:00,90.0,60.2,28.79,SW,225,2.3,2.3,37,0.00,CLR,OVC,0.00,WeatherDisplay:10.37,2013-07-16 22:35:00,
2013-07-16 15:40:00,89.4,61.9,28.79,SE,135,2.3,2.3,40,0.00,CLR,OVC,0.00,WeatherDisplay:10.37,2013-07-16 22:40:00,
2013-07-16 15:45:00,90.0,62.4,28.79,WSW,248,1.2,1.2,40,0.00,CLR,OVC,0.00,WeatherDisplay:10.37,2013-07-16 22:45:00,
2013-07-16 15:50:00,91.9,63.4,28.79,SSW,202,2.3,2.3,39,0.00,CLR,OVC,0.00,WeatherDisplay:10.37,2013-07-16 22:50:00,
2013-07-16 15:55:00,92.8,62.0,28.79,SW,225,4.6,4.6,36,0.00,CLR,OVC,0.00,WeatherDisplay:10.37,2013-07-16 22:55:00,
2013-07-16 16:00:00,93.9,64.5,28.79,South,180,2.3,2.3,38,0.00,CLR,OVC,0.00,WeatherDisplay:10.37,2013-07-16 23:00:00,
2013-07-16 16:05:00,95.0,63.1,28.79,SSW,202,3.5,3.5,35,0.00,CLR,OVC,0.00,WeatherDisplay:10.37,2013-07-16 23:05:00,
2013-07-16 16:10:00,95.9,63.8,28.79,SSW,202,2.3,2.3,35,0.00,CLR,OVC,0.00,WeatherDisplay:10.37,2013-07-16 23:10:00,
2013-07-16 16:15:00,97.0,63.1,28.79,SW,225,2.3,2.9,33,0.00,CLR,OVC,0.00,WeatherDisplay:10.37,2013-07-16 23:15:00,
2013-07-16 16:20:00,96.6,61.9,28.79,SW,225,4.6,4.6,32,0.00,CLR,OVC,0.00,WeatherDisplay:10.37,2013-07-16 23:20:00,
2013-07-16 16:25:00,96.1,62.3,28.79,WSW,248,3.5,3.5,33,0.00,CLR,OVC,0.00,WeatherDisplay:10.37,2013-07-16 23:25:00,
2013-07-16 16:30:00,96.4,62.6,28.79,SW,225,3.5,3.5,33,0.00,CLR,OVC,0.00,WeatherDisplay:10.37,2013-07-16 23:30:00,
2013-07-16 16:35:00,96.1,61.5,28.80,WSW,248,2.3,2.6,32,0.00,CLR,OVC,0.00,WeatherDisplay:10.37,2013-07-16 23:35:00,
2013-07-16 16:40:00,97.3,63.4,28.79,SSW,202,2.3,2.3,33,0.00,CLR,OVC,0.00,WeatherDisplay:10.37,2013-07-16 23:40:00,
2013-07-16 16:45:00,98.4,62.6,28.80,SW,225,4.6,4.6,31,0.00,CLR,OVC,0.00,WeatherDisplay:10.37,2013-07-16 23:45:00,
2013-07-16 16:50:00,98.8,62.9,28.79,SSW,202,2.3,2.3,31,0.00,CLR,OVC,0.00,WeatherDisplay:10.37,2013-07-16 23:50:00,
2013-07-16 16:55:00,99.3,63.4,28.79,SW,225,3.5,3.5,31,0.00,CLR,OVC,0.00,WeatherDisplay:10.37,2013-07-16 23:55:00,
2013-07-16 17:00:00,98.6,62.7,28.79,SW,225,3.6,3.6,31,0.00,CLR,OVC,0.00,WeatherDisplay:10.37,2013-07-17 00:00:00,
2013-07-16 17:05:00,98.4,62.6,28.80,SW,225,4.6,4.6,31,0.00,CLR,OVC,0.00,WeatherDisplay:10.37,2013-07-17 00:05:00,
2013-07-16 17:10:00,98.2,62.4,28.80,West,270,3.5,3.5,31,0.00,CLR,OVC,0.00,WeatherDisplay:10.37,2013-07-17 00:10:00,
2013-07-16 17:15:00,96.8,61.2,28.80,WSW,248,4.6,4.6,31,0.00,CLR,OVC,0.00,WeatherDisplay:10.37,2013-07-17 00:15:00,
2013-07-16 17:20:00,94.6,60.2,28.80,SSW,202,2.3,2.3,32,0.00,CLR,OVC,0.00,WeatherDisplay:10.37,2013-07-17 00:20:00,
2013-07-16 17:25:00,94.3,60.8,28.80,SW,225,2.3,2.3,33,0.00,CLR,OVC,0.00,WeatherDisplay:10.37,2013-07-17 00:25:00,
2013-07-16 17:30:00,94.8,61.2,28.80,WSW,248,3.5,3.5,33,0.00,CLR,OVC,0.00,WeatherDisplay:10.37,2013-07-17 00:30:00,
2013-07-16 17:35:00,95.4,61.7,28.80,WSW,248,3.5,3.5,33,0.00,CLR,OVC,0.00,WeatherDisplay:10.37,2013-07-17 00:35:00,
2013-07-16 17:40:00,94.5,60.9,28.80,WNW,292,2.3,2.3,33,0.00,CLR,OVC,0.00,WeatherDisplay:10.37,2013-07-17 00:40:00,
2013-07-16 17:45:00,93.2,60.7,28.80,SW,225,1.2,1.8,34,0.00,CLR,OVC,0.00,WeatherDisplay:10.37,2013-07-17 00:45:00,
2013-07-16 17:50:00,93.0,60.5,28.81,NW,315,2.2,2.2,34,0.00,CLR,OVC,0.00,WeatherDisplay:10.37,2013-07-17 00:50:00,
2013-07-16 17:55:00,92.5,60.0,28.81,SW,225,2.3,2.3,34,0.00,CLR,OVC,0.00,WeatherDisplay:10.37,2013-07-17 00:55:00,
2013-07-16 18:00:00,92.8,60.3,28.81,NW,315,1.2,1.2,34,0.00,CLR,OVC,0.00,WeatherDisplay:10.37,2013-07-17 01:00:00,
2013-07-16 18:05:00,92.8,60.3,28.81,WSW,248,1.2,1.2,34,0.00,CLR,OVC,0.00,WeatherDisplay:10.37,2013-07-17 01:05:00,
2013-07-16 18:10:00,92.5,60.0,28.81,SW,225,1.2,1.2,34,0.00,CLR,OVC,0.00,WeatherDisplay:10.37,2013-07-17 01:10:00,
2013-07-16 18:15:00,93.9,61.3,28.81,NW,315,1.8,1.8,34,0.00,CLR,OVC,0.00,WeatherDisplay:10.37,2013-07-17 01:15:00,
2013-07-16 18:20:00,95.7,62.0,28.81,WSW,248,2.3,2.3,33,0.00,CLR,OVC,0.00,WeatherDisplay:10.37,2013-07-17 01:20:00,
2013-07-16 18:25:00,93.9,59.6,28.82,SSW,202,5.8,5.8,32,0.00,CLR,OVC,0.00,WeatherDisplay:10.37,2013-07-17 01:25:00,
2013-07-16 18:30:00,92.5,59.2,28.81,NW,315,4.6,4.6,33,0.00,CLR,OVC,0.00,WeatherDisplay:10.37,2013-07-17 01:30:00,
2013-07-16 18:35:00,92.5,60.0,28.81,SSE,158,4.6,4.6,34,0.00,CLR,OVC,0.00,WeatherDisplay:10.37,2013-07-17 01:35:00,
2013-07-16 18:40:00,92.1,59.7,28.81,WNW,292,2.3,2.3,34,0.00,CLR,OVC,0.00,WeatherDisplay:10.37,2013-07-17 01:40:00,
2013-07-16 18:45:00,92.3,60.7,28.81,SW,225,2.3,2.6,35,0.00,CLR,OVC,0.00,WeatherDisplay:10.37,2013-07-17 01:45:00,
2013-07-16 18:51:00,92.7,61.0,28.81,SSW,202,2.3,2.3,35,0.00,CLR,OVC,0.00,WeatherDisplay:10.37,2013-07-17 01:51:00,
2013-07-16 18:56:00,92.7,61.0,28.82,SW,225,1.2,1.2,35,0.00,CLR,OVC,0.00,WeatherDisplay:10.37,2013-07-17 01:56:00,
2013-07-16 19:01:00,90.7,59.3,28.82,SW,225,2.3,2.3,35,0.00,CLR,OVC,0.00,WeatherDisplay:10.37,2013-07-17 02:01:00,
2013-07-16 19:06:00,87.6,58.9,28.82,East,90,2.3,2.3,38,0.00,CLR,OVC,0.00,WeatherDisplay:10.37,2013-07-17 02:06:00,
2013-07-16 19:11:00,85.8,57.3,28.82,North,0,1.2,1.2,38,0.00,CLR,OVC,0.00,WeatherDisplay:10.37,2013-07-17 02:11:00,
2013-07-16 19:16:00,84.0,56.4,28.82,WNW,292,3.5,3.5,39,0.00,CLR,OVC,0.00,WeatherDisplay:10.37,2013-07-17 02:16:00,
2013-07-16 19:21:00,82.8,56.0,28.82,ENE,68,0.0,1.4,40,0.00,CLR,OVC,0.00,WeatherDisplay:10.37,2013-07-17 02:21:00,
2013-07-16 19:26:00,81.7,55.7,28.83,WSW,248,2.3,2.3,41,0.00,CLR,OVC,0.00,WeatherDisplay:10.37,2013-07-17 02:26:00,
2013-07-16 19:31:00,80.8,55.5,28.83,WSW,248,1.2,1.2,42,0.00,CLR,OVC,0.00,WeatherDisplay:10.37,2013-07-17 02:31:00,
2013-07-16 19:36:00,79.9,54.7,28.83,West,270,2.3,2.3,42,0.00,CLR,OVC,0.00,WeatherDisplay:10.37,2013-07-17 02:36:00,
2013-07-16 19:41:00,78.8,53.1,28.84,NNW,338,2.3,2.3,41,0.00,CLR,OVC,0.00,WeatherDisplay:10.37,2013-07-17 02:41:00,
2013-07-16 19:46:00,77.9,53.0,28.84,SSE,158,1.2,1.2,42,0.00,CLR,OVC,0.00,WeatherDisplay:10.37,2013-07-17 02:46:00,
2013-07-16 19:51:00,77.0,52.1,28.84,SW,225,3.1,3.1,42,0.00,CLR,OVC,0.00,WeatherDisplay:10.37,2013-07-17 02:51:00,
2013-07-16 19:56:00,75.9,51.2,28.84,WNW,292,4.6,4.6,42,0.00,CLR,OVC,0.00,WeatherDisplay:10.37,2013-07-17 02:56:00,
2013-07-16 20:01:00,75.0,51.0,28.84,SW,225,3.5,3.5,43,0.00,CLR,OVC,0.00,WeatherDisplay:10.37,2013-07-17 03:01:00,
2013-07-16 20:06:00,74.1,49.6,28.84,SW,225,5.8,5.8,42,0.00,CLR,OVC,0.00,WeatherDisplay:10.37,2013-07-17 03:06:00,
2013-07-16 20:11:00,73.8,49.9,28.84,North,0,2.3,2.3,43,0.00,CLR,OVC,0.00,WeatherDisplay:10.37,2013-07-17 03:11:00,
2013-07-16 20:16:00,73.2,49.4,28.84,West,270,4.6,4.6,43,0.00,CLR,OVC,0.00,WeatherDisplay:10.37,2013-07-17 03:16:00,
2013-07-16 20:21:00,72.9,48.4,28.84,NNW,338,4.6,4.6,42,0.00,CLR,OVC,0.00,WeatherDisplay:10.37,2013-07-17 03:21:00,
2013-07-16 20:26:00,72.5,48.1,28.83,SE,135,4.6,4.6,42,0.00,CLR,OVC,0.00,WeatherDisplay:10.37,2013-07-17 03:26:00,
2013-07-16 20:31:00,72.3,47.9,28.83,SSW,202,4.6,4.6,42,0.00,CLR,OVC,0.00,WeatherDisplay:10.37,2013-07-17 03:31:00,
2013-07-16 20:36:00,72.3,47.9,28.82,South,180,5.4,5.4,42,0.00,CLR,OVC,0.00,WeatherDisplay:10.37,2013-07-17 03:36:00,
2013-07-16 20:41:00,72.5,48.1,28.82,SSE,158,3.5,3.5,42,0.00,CLR,OVC,0.00,WeatherDisplay:10.37,2013-07-17 03:41:00,
2013-07-16 20:46:00,72.7,48.3,28.83,SW,225,3.5,3.6,42,0.00,CLR,OVC,0.00,WeatherDisplay:10.37,2013-07-17 03:46:00,
2013-07-16 20:51:00,72.3,47.9,28.84,West,270,2.3,2.3,42,0.00,CLR,OVC,0.00,WeatherDisplay:10.37,2013-07-17 03:51:00,
2013-07-16 20:56:00,71.8,48.7,28.85,NW,315,4.6,4.6,44,0.00,CLR,OVC,0.00,WeatherDisplay:10.37,2013-07-17 03:56:00,
2013-07-16 21:01:00,71.4,48.4,28.85,WNW,292,2.3,2.3,44,0.00,CLR,OVC,0.00,WeatherDisplay:10.37,2013-07-17 04:01:00,
2013-07-16 21:06:00,70.9,49.1,28.86,SE,135,2.3,2.3,46,0.00,CLR,OVC,0.00,WeatherDisplay:10.37,2013-07-17 04:06:00,
2013-07-16 21:11:00,70.2,49.5,28.87,West,270,1.2,1.2,48,0.00,CLR,OVC,0.00,WeatherDisplay:10.37,2013-07-17 04:11:00,
2013-07-16 21:16:00,69.4,49.4,28.87,East,90,4.6,4.6,49,0.00,CLR,OVC,0.00,WeatherDisplay:10.37,2013-07-17 04:16:00,
2013-07-16 21:22:00,68.5,49.2,28.87,SE,135,1.2,1.4,50,0.00,CLR,OVC,0.00,WeatherDisplay:10.37,2013-07-17 04:22:00,
2013-07-16 21:27:00,67.8,49.0,28.87,West,270,1.2,1.2,51,0.00,CLR,OVC,0.00,WeatherDisplay:10.37,2013-07-17 04:27:00,
2013-07-16 21:32:00,67.3,49.0,28.87,SW,225,1.4,1.4,52,0.00,CLR,OVC,0.00,WeatherDisplay:10.37,2013-07-17 04:32:00,
2013-07-16 21:37:00,66.9,49.2,28.88,SSW,202,2.3,2.3,53,0.00,CLR,OVC,0.00,WeatherDisplay:10.37,2013-07-17 04:37:00,
2013-07-16 21:42:00,66.7,49.6,28.88,NE,45,2.3,2.4,54,0.00,CLR,OVC,0.00,WeatherDisplay:10.37,2013-07-17 04:42:00,
2013-07-16 21:47:00,66.6,49.4,28.88,SSW,202,2.3,2.3,54,0.00,CLR,OVC,0.00,WeatherDisplay:10.37,2013-07-17 04:47:00,
2013-07-16 21:52:00,66.6,48.9,28.88,WSW,248,2.3,2.3,53,0.00,CLR,OVC,0.00,WeatherDisplay:10.37,2013-07-17 04:52:00,
2013-07-16 21:55:00,66.6,48.9,28.88,East,90,2.3,2.3,53,0.00,CLR,OVC,0.00,WeatherDisplay:10.37,2013-07-17 04:55:00,
2013-07-16 21:59:00,66.7,49.1,28.88,ENE,68,2.3,2.3,53,0.00,CLR,OVC,0.00,WeatherDisplay:10.37,2013-07-17 04:59:00,
2013-07-16 22:04:00,66.7,50.1,28.88,NNW,338,3.5,3.5,55,0.00,CLR,OVC,0.00,WeatherDisplay:10.37,2013-07-17 05:04:00,
2013-07-16 22:09:00,66.7,49.1,28.89,SW,225,1.2,1.2,53,0.00,CLR,OVC,0.00,WeatherDisplay:10.37,2013-07-17 05:09:00,
2013-07-16 22:14:00,66.6,49.4,28.89,SSW,202,2.3,2.3,54,0.00,CLR,OVC,0.00,WeatherDisplay:10.37,2013-07-17 05:14:00,
2013-07-16 22:19:00,66.2,49.1,28.89,West,270,2.3,2.3,54,0.00,CLR,OVC,0.00,WeatherDisplay:10.37,2013-07-17 05:19:00,
2013-07-16 22:24:00,65.8,49.2,28.90,SSW,202,0.7,0.7,55,0.00,CLR,OVC,0.00,WeatherDisplay:10.37,2013-07-17 05:24:00,
2013-07-16 22:29:00,65.5,48.9,28.90,SW,225,1.2,0.0,55,0.00,CLR,OVC,0.00,WeatherDisplay:10.37,2013-07-17 05:29:00,
2013-07-16 22:34:00,65.1,50.0,28.90,West,270,2.3,2.3,58,0.00,CLR,OVC,0.00,WeatherDisplay:10.37,2013-07-17 05:34:00,
2013-07-16 22:39:00,64.8,50.1,28.91,SSE,158,1.4,1.4,59,0.00,CLR,OVC,0.00,WeatherDisplay:10.37,2013-07-17 05:39:00,
2013-07-16 22:44:00,64.4,50.7,28.91,SSE,158,2.3,2.3,61,0.00,CLR,OVC,0.00,WeatherDisplay:10.37,2013-07-17 05:44:00,
2013-07-16 22:49:00,64.0,50.3,28.92,West,270,1.2,1.8,61,0.00,CLR,OVC,0.00,WeatherDisplay:10.37,2013-07-17 05:49:00,
2013-07-16 22:54:00,63.7,50.8,28.92,ENE,68,2.3,2.3,63,0.00,CLR,OVC,0.00,WeatherDisplay:10.37,2013-07-17 05:54:00,
2013-07-16 22:59:00,63.3,50.5,28.92,SW,225,1.2,1.2,63,0.00,CLR,OVC,0.00,WeatherDisplay:10.37,2013-07-17 05:59:00,
2013-07-16 23:04:00,63.0,50.2,28.92,SSW,202,1.2,0.0,63,0.00,CLR,OVC,0.00,WeatherDisplay:10.37,2013-07-17 06:04:00,
2013-07-16 23:09:00,62.6,50.7,28.93,NNE,22,2.3,2.3,65,0.00,CLR,OVC,0.00,WeatherDisplay:10.37,2013-07-17 06:09:00,
2013-07-16 23:14:00,62.2,50.7,28.93,SSW,202,1.4,1.4,66,0.00,CLR,OVC,0.00,WeatherDisplay:10.37,2013-07-17 06:14:00,
2013-07-16 23:19:00,61.9,50.4,28.93,SSW,202,1.2,1.2,66,0.00,CLR,OVC,0.00,WeatherDisplay:10.37,2013-07-17 06:19:00,
2013-07-16 23:24:00,61.5,50.1,28.93,SE,135,1.2,0.0,66,0.00,CLR,OVC,0.00,WeatherDisplay:10.37,2013-07-17 06:24:00,
2013-07-16 23:29:00,61.3,50.7,28.93,WSW,248,0.5,0.5,68,0.00,CLR,OVC,0.00,WeatherDisplay:10.37,2013-07-17 06:29:00,
2013-07-16 23:34:00,61.0,50.7,28.94,East,90,1.2,1.2,69,0.00,CLR,OVC,0.00,WeatherDisplay:10.37,2013-07-17 06:34:00,
2013-07-16 23:39:00,60.8,51.3,28.94,NNW,338,2.3,2.3,71,0.00,CLR,OVC,0.00,WeatherDisplay:10.37,2013-07-17 06:39:00,
2013-07-16 23:44:00,60.8,52.1,28.94,WSW,248,2.3,2.3,73,0.00,CLR,OVC,0.00,WeatherDisplay:10.37,2013-07-17 06:44:00,
2013-07-16 23:49:00,60.8,52.5,28.93,South,180,4.6,4.6,74,0.00,CLR,OVC,0.00,WeatherDisplay:10.37,2013-07-17 06:49:00,
2013-07-16 23:54:00,60.8,52.8,28.94,SW,225,2.3,2.3,75,0.00,CLR,OVC,0.00,WeatherDisplay:10.37,2013-07-17 06:54:00,
2013-07-16 23:59:00,60.8,53.2,28.94,West,270,3.5,3.5,76,0.00,CLR,OVC,0.00,WeatherDisplay:10.37,2013-07-17 06:59:00,